Time;durP1;ratioP1;P1;durP2;ratioP2;P2;SDS_P1;SDS_P2;PMS_P1;PMS_P2;Temp;Humidity;BMP_temperature;BMP_pressure;BME280_temperature;BME280_humidity;BME280_pressure;Samples;Min_cycle;Max_cycle;Signal;HPM_P1;HPM_P2
2023/08/03 04:36:16;;;;;;;0.00;0.00;;;;;;;;;;7205522;19;3616554;-70
2023/08/03 04:38:49;;;;;;;0.00;0.00;;;;;;;;;;7391834;19;20206;-73
2023/08/03 04:44:01;;;;;;;0.00;0.00;;;;;;;;;;7416124;19;20150;-72
2023/08/03 04:46:34;;;;;;;0.00;0.00;;;;;;;;;;7415289;19;20225;-72
2023/08/03 04:49:03;;;;;;;0.00;0.00;;;;;;;;;;7419607;19;20148;-70
2023/08/03 04:51:36;;;;;;;0.00;0.00;;;;;;;;;;7415050;19;20155;-71
2023/08/03 04:54:05;;;;;;;0.00;0.00;;;;;;;;;;7411626;19;20219;-75
2023/08/03 04:56:34;;;;;;;0.00;0.00;;;;;;;;;;7408021;19;20184;-71
2023/08/03 04:59:04;;;;;;;0.00;0.00;;;;;;;;;;7416679;19;20132;-71
2023/08/03 05:01:33;;;;;;;0.00;0.00;;;;;;;;;;7400939;19;20148;-78
2023/08/03 05:04:02;;;;;;;0.00;0.00;;;;;;;;;;7413680;19;20148;-71
2023/08/03 05:06:32;;;;;;;0.00;0.00;;;;;;;;;;7403826;19;20220;-74
2023/08/03 05:09:06;;;;;;;0.00;0.00;;;;;;;;;;7415877;19;20148;-70
2023/08/03 05:11:36;;;;;;;0.00;0.00;;;;;;;;;;7407535;19;20156;-77
2023/08/03 05:14:05;;;;;;;0.00;0.00;;;;;;;;;;7408286;19;20156;-73
2023/08/03 05:16:40;;;;;;;0.00;0.00;;;;;;;;;;7406374;19;20231;-75
2023/08/03 05:19:10;;;;;;;0.00;0.00;;;;;;;;;;7411150;19;20131;-71
2023/08/03 05:21:39;;;;;;;0.00;0.00;;;;;;;;;;7406414;19;20164;-72
2023/08/03 05:24:11;;;;;;;0.00;0.00;;;;;;;;;;7405181;19;20194;-77
2023/08/03 05:26:40;;;;;;;0.00;0.00;;;;;;;;;;7402899;19;20590;-73
2023/08/03 05:29:09;;;;;;;0.00;0.00;;;;;;;;;;7411517;19;20133;-77
2023/08/03 05:31:38;;;;;;;0.00;0.00;;;;;;;;;;7406345;19;20598;-75
2023/08/03 05:34:07;;;;;;;0.00;0.00;;;;;;;;;;7408766;19;20164;-74
2023/08/03 05:36:36;;;;;;;0.00;0.00;;;;;;;;;;7394444;19;20200;-71
2023/08/03 05:39:05;;;;;;;0.00;0.00;;;;;;;;;;7384505;19;20148;-77
2023/08/03 05:41:37;;;;;;;0.00;0.00;;;;;;;;;;7380327;19;20157;-71
2023/08/03 05:44:06;;;;;;;0.00;0.00;;;;;;;;;;7382646;19;20152;-71
2023/08/03 05:46:36;;;;;;;0.00;0.00;;;;;;;;;;7381748;19;20219;-74
2023/08/03 05:49:05;;;;;;;0.00;0.00;;;;;;;;;;7383503;19;20129;-74
2023/08/03 05:51:46;;;;;;;0.00;0.00;;;;;;;;;;7383050;19;20156;-71
2023/08/03 05:54:17;;;;;;;0.00;0.00;;;;;;;;;;7384559;19;20152;-74
2023/08/03 05:56:49;;;;;;;0.00;0.00;;;;;;;;;;7384296;19;20167;-70
2023/08/03 05:59:21;;;;;;;0.00;0.00;;;;;;;;;;7386851;19;20197;-75
2023/08/03 06:01:50;;;;;;;0.00;0.00;;;;;;;;;;7382943;19;20220;-74
2023/08/03 06:04:25;;;;;;;0.00;0.00;;;;;;;;;;7389892;19;20144;-73
2023/08/03 06:06:54;;;;;;;0.00;0.00;;;;;;;;;;7391776;19;20141;-72
2023/08/03 06:09:25;;;;;;;0.00;0.00;;;;;;;;;;7392431;19;20148;-74
2023/08/03 06:11:59;;;;;;;0.00;0.00;;;;;;;;;;7392225;19;20148;-72
2023/08/03 06:14:28;;;;;;;0.00;0.00;;;;;;;;;;7391802;19;20149;-73
2023/08/03 06:17:00;;;;;;;0.00;0.00;;;;;;;;;;7392294;19;20144;-73
2023/08/03 06:19:29;;;;;;;0.00;0.00;;;;;;;;;;7392507;19;20160;-74
2023/08/03 06:21:58;;;;;;;0.00;0.00;;;;;;;;;;7393579;19;20128;-74
2023/08/03 06:24:28;;;;;;;0.00;0.00;;;;;;;;;;7386987;19;20169;-73
2023/08/03 06:27:00;;;;;;;0.00;0.00;;;;;;;;;;7384174;19;20141;-74
2023/08/03 06:29:29;;;;;;;0.00;0.00;;;;;;;;;;7383054;19;20197;-72
2023/08/03 06:31:58;;;;;;;0.00;0.00;;;;;;;;;;7382526;19;20178;-73
2023/08/03 06:34:28;;;;;;;0.00;0.00;;;;;;;;;;7383274;19;20160;-72
2023/08/03 06:36:57;;;;;;;0.00;0.00;;;;;;;;;;7384577;19;20161;-72
2023/08/03 06:39:26;;;;;;;0.00;0.00;;;;;;;;;;7383816;19;20152;-73
2023/08/03 06:41:58;;;;;;;0.00;0.00;;;;;;;;;;7380497;19;20173;-73
2023/08/03 06:44:30;;;;;;;0.00;0.00;;;;;;;;;;7382417;19;20165;-74
2023/08/03 06:47:00;;;;;;;0.00;0.00;;;;;;;;;;7380181;19;20183;-72
2023/08/03 06:49:30;;;;;;;0.00;0.00;;;;;;;;;;7381867;19;20152;-73
2023/08/03 06:52:02;;;;;;;0.00;0.00;;;;;;;;;;7382641;19;20164;-73
2023/08/03 06:54:31;;;;;;;0.00;0.00;;;;;;;;;;7381550;19;20137;-72
2023/08/03 06:57:01;;;;;;;0.00;0.00;;;;;;;;;;7381354;19;20160;-75
2023/08/03 06:59:36;;;;;;;0.00;0.00;;;;;;;;;;7380522;19;20152;-75
2023/08/03 07:02:11;;;;;;;0.00;0.00;;;;;;;;;;7381382;19;20144;-73
2023/08/03 07:04:41;;;;;;;0.00;0.00;;;;;;;;;;7378934;19;20195;-72
2023/08/03 07:07:10;;;;;;;0.00;0.00;;;;;;;;;;7380391;19;20156;-74
2023/08/03 07:09:40;;;;;;;0.00;0.00;;;;;;;;;;7382108;19;20149;-72
2023/08/03 07:12:12;;;;;;;0.00;0.00;;;;;;;;;;7381480;19;20236;-72
2023/08/03 07:14:44;;;;;;;0.00;0.00;;;;;;;;;;7378953;19;20156;-73
2023/08/03 07:17:13;;;;;;;0.00;0.00;;;;;;;;;;7380131;19;20159;-74
2023/08/03 07:19:43;;;;;;;0.00;0.00;;;;;;;;;;7380685;19;20149;-74
2023/08/03 07:22:13;;;;;;;0.00;0.00;;;;;;;;;;7381846;19;20235;-73
2023/08/03 07:24:44;;;;;;;0.00;0.00;;;;;;;;;;7380514;19;20267;-72
2023/08/03 07:27:13;;;;;;;0.00;0.00;;;;;;;;;;7381897;19;20185;-74
2023/08/03 07:29:45;;;;;;;0.00;0.00;;;;;;;;;;7381272;19;20160;-72
2023/08/03 07:32:14;;;;;;;0.00;0.00;;;;;;;;;;7381760;19;20156;-73
2023/08/03 07:34:43;;;;;;;0.00;0.00;;;;;;;;;;7379241;19;20196;-72
2023/08/03 07:37:12;;;;;;;0.00;0.00;;;;;;;;;;7382618;19;20140;-73
2023/08/03 07:39:42;;;;;;;0.00;0.00;;;;;;;;;;7380279;19;20185;-73
2023/08/03 07:42:11;;;;;;;0.00;0.00;;;;;;;;;;7377400;19;20178;-75
2023/08/03 07:44:41;;;;;;;0.00;0.00;;;;;;;;;;7377858;19;20246;-73
2023/08/03 07:47:13;;;;;;;0.00;0.00;;;;;;;;;;7382133;19;20140;-73
2023/08/03 07:49:42;;;;;;;0.00;0.00;;;;;;;;;;7381298;19;20175;-74
2023/08/03 07:52:11;;;;;;;0.00;0.00;;;;;;;;;;7378333;19;20194;-74
2023/08/03 07:54:40;;;;;;;0.00;0.00;;;;;;;;;;7376908;19;20163;-74
2023/08/03 07:57:15;;;;;;;0.00;0.00;;;;;;;;;;7380589;19;20160;-71
2023/08/03 07:59:44;;;;;;;0.00;0.00;;;;;;;;;;7377369;19;20167;-75
2023/08/03 08:02:16;;;;;;;0.00;0.00;;;;;;;;;;7377880;19;20684;-75
2023/08/03 08:04:45;;;;;;;0.00;0.00;;;;;;;;;;7371185;19;20247;-74
2023/08/03 08:07:15;;;;;;;0.00;0.00;;;;;;;;;;7373551;19;20153;-74
2023/08/03 08:09:47;;;;;;;0.00;0.00;;;;;;;;;;7377750;19;20212;-74
2023/08/03 08:12:18;;;;;;;0.00;0.00;;;;;;;;;;7379431;19;20165;-74
2023/08/03 08:14:50;;;;;;;0.00;0.00;;;;;;;;;;7376200;19;20201;-72
2023/08/03 08:17:26;;;;;;;0.00;0.00;;;;;;;;;;7379675;19;20164;-74
2023/08/03 08:19:55;;;;;;;0.00;0.00;;;;;;;;;;7378165;19;20153;-73
2023/08/03 08:22:25;;;;;;;0.00;0.00;;;;;;;;;;7379393;19;20170;-73
2023/08/03 08:24:57;;;;;;;0.00;0.00;;;;;;;;;;7378314;19;20161;-73
2023/08/03 08:27:27;;;;;;;0.00;0.00;;;;;;;;;;7379849;19;20145;-73
2023/08/03 08:29:56;;;;;;;0.00;0.00;;;;;;;;;;7379299;19;20151;-73
2023/08/03 08:32:28;;;;;;;0.00;0.00;;;;;;;;;;7381310;19;20153;-73
2023/08/03 08:34:57;;;;;;;0.00;0.00;;;;;;;;;;7375595;19;20195;-73
2023/08/03 08:37:29;;;;;;;0.00;0.00;;;;;;;;;;7378999;19;20145;-72
2023/08/03 08:39:58;;;;;;;0.00;0.00;;;;;;;;;;7379492;19;20150;-73
2023/08/03 08:42:27;;;;;;;0.00;0.00;;;;;;;;;;7378667;19;20144;-73
2023/08/03 08:44:59;;;;;;;0.00;0.00;;;;;;;;;;7375953;19;20184;-72
2023/08/03 08:47:32;;;;;;;0.00;0.00;;;;;;;;;;7378465;19;20148;-73
2023/08/03 08:50:02;;;;;;;0.00;0.00;;;;;;;;;;7377357;19;20241;-72
2023/08/03 08:52:32;;;;;;;0.67;0.00;;;;;;;;;;7378319;19;20183;-74
2023/08/03 08:55:13;;;;;;;0.00;0.00;;;;;;;;;;7374720;19;20188;-72
2023/08/03 08:57:42;;;;;;;0.00;0.00;;;;;;;;;;7377812;19;20143;-71
2023/08/03 09:00:12;;;;;;;0.00;0.00;;;;;;;;;;7378716;19;20153;-72
2023/08/03 09:02:44;;;;;;;0.00;0.00;;;;;;;;;;7379326;19;20154;-73
2023/08/03 09:05:14;;;;;;;0.00;0.00;;;;;;;;;;7375695;19;20184;-76
2023/08/03 09:07:43;;;;;;;0.00;0.00;;;;;;;;;;7376653;19;20157;-74
2023/08/03 09:10:12;;;;;;;0.00;0.00;;;;;;;;;;7375026;19;20160;-72
2023/08/03 09:12:43;;;;;;;0.00;0.00;;;;;;;;;;7371873;19;20173;-73
2023/08/03 09:15:13;;;;;;;0.00;0.00;;;;;;;;;;7381782;19;20240;-74
2023/08/03 09:17:46;;;;;;;0.00;0.00;;;;;;;;;;7383720;19;20177;-73
2023/08/03 09:20:28;;;;;;;0.00;0.00;;;;;;;;;;7384647;19;20141;-74
2023/08/03 09:23:00;;;;;;;0.00;0.00;;;;;;;;;;7384209;19;20149;-72
2023/08/03 09:25:30;;;;;;;0.00;0.00;;;;;;;;;;7381995;19;20240;-72
2023/08/03 09:28:00;;;;;;;0.00;0.00;;;;;;;;;;7384456;19;20144;-73
2023/08/03 09:30:30;;;;;;;0.00;0.00;;;;;;;;;;7383981;19;20172;-73
2023/08/03 09:33:02;;;;;;;0.00;0.00;;;;;;;;;;7383110;19;20155;-73
2023/08/03 09:35:31;;;;;;;0.00;0.00;;;;;;;;;;7381553;19;20187;-72
2023/08/03 09:38:00;;;;;;;0.00;0.00;;;;;;;;;;7385642;19;20402;-74
2023/08/03 09:40:29;;;;;;;0.00;0.00;;;;;;;;;;7385534;19;20137;-73
2023/08/03 09:42:58;;;;;;;0.00;0.00;;;;;;;;;;7383452;19;20159;-72
2023/08/03 09:45:29;;;;;;;0.00;0.00;;;;;;;;;;7383262;19;20208;-74
2023/08/03 09:47:59;;;;;;;0.00;0.00;;;;;;;;;;7383950;19;20145;-73
2023/08/03 09:50:37;;;;;;;0.00;0.00;;;;;;;;;;7383288;19;20153;-72
2023/08/03 09:53:10;;;;;;;0.00;0.00;;;;;;;;;;7383549;19;20156;-73
2023/08/03 09:55:42;;;;;;;0.00;0.00;;;;;;;;;;7381548;19;20846;-73
2023/08/03 09:58:14;;;;;;;0.00;0.00;;;;;;;;;;7383476;19;20148;-74
2023/08/03 10:00:45;;;;;;;0.00;0.00;;;;;;;;;;7382290;19;20159;-71
2023/08/03 10:03:15;;;;;;;0.00;0.00;;;;;;;;;;7383380;19;20180;-73
2023/08/03 10:05:49;;;;;;;0.00;0.00;;;;;;;;;;7380353;19;20184;-74
2023/08/03 10:08:22;;;;;;;0.00;0.00;;;;;;;;;;7386605;19;20152;-75
2023/08/03 10:10:52;;;;;;;0.00;0.00;;;;;;;;;;7382333;19;20173;-78
2023/08/03 10:13:21;;;;;;;0.00;0.00;;;;;;;;;;7380341;19;20469;-72
2023/08/03 10:15:50;;;;;;;0.00;0.00;;;;;;;;;;7365617;19;20180;-72
2023/08/03 10:18:20;;;;;;;0.00;0.00;;;;;;;;;;7382558;19;20172;-72
2023/08/03 10:20:53;;;;;;;0.00;0.00;;;;;;;;;;7381648;19;20152;-74
2023/08/03 10:23:22;;;;;;;0.00;0.00;;;;;;;;;;7383110;19;20841;-72
2023/08/03 10:26:01;;;;;;;0.00;0.00;;;;;;;;;;7377910;19;20207;-72
2023/08/03 10:28:31;;;;;;;0.00;0.00;;;;;;;;;;7382826;19;20179;-74
2023/08/03 10:31:10;;;;;;;0.00;0.00;;;;;;;;;;7381997;19;20157;-73
2023/08/03 10:33:57;;;;;;;0.00;0.00;;;;;;;;;;7382835;19;20156;-73
2023/08/03 10:36:40;;;;;;;0.00;0.00;;;;;;;;;;7379188;19;20186;-74
2023/08/03 10:39:07;;;;;;;0.00;0.00;;;;;;;;;;7381106;19;20156;-73
2023/08/03 10:41:40;;;;;;;0.00;0.00;;;;;;;;;;7382035;19;20156;-72
2023/08/03 10:44:25;;;;;;;0.00;0.00;;;;;;;;;;7383054;19;20187;-73
2023/08/03 10:46:59;;;;;;;0.00;0.00;;;;;;;;;;7376076;19;20873;-75
2023/08/03 10:49:56;;;;;;;0.00;0.00;;;;;;;;;;7378128;19;20157;-73
2023/08/03 10:52:29;;;;;;;0.00;0.00;;;;;;;;;;7369863;19;20151;-73
2023/08/03 10:55:00;;;;;;;0.00;0.00;;;;;;;;;;7379333;19;20183;-74
2023/08/03 10:57:30;;;;;;;0.00;0.00;;;;;;;;;;7374005;19;20148;-71
2023/08/03 11:00:00;;;;;;;0.00;0.00;;;;;;;;;;7377614;19;20555;-72
2023/08/03 11:02:31;;;;;;;0.00;0.00;;;;;;;;;;7381989;19;20141;-74
2023/08/03 11:05:01;;;;;;;0.00;0.00;;;;;;;;;;7378151;19;20222;-74
2023/08/03 11:07:34;;;;;;;0.00;0.00;;;;;;;;;;7378388;19;20160;-72
2023/08/03 11:10:04;;;;;;;0.00;0.00;;;;;;;;;;7375226;19;20193;-71
2023/08/03 11:12:33;;;;;;;0.00;0.00;;;;;;;;;;7376330;19;20171;-73
2023/08/03 11:15:30;;;;;;;0.00;0.00;;;;;;;;;;7362665;19;20188;-72
2023/08/03 11:18:01;;;;;;;0.00;0.00;;;;;;;;;;7376790;19;20148;-71
2023/08/03 11:20:31;;;;;;;0.00;0.00;;;;;;;;;;7378799;19;20145;-70
2023/08/03 11:23:02;;;;;;;0.00;0.00;;;;;;;;;;7378293;19;20160;-71
2023/08/03 11:25:31;;;;;;;0.00;0.00;;;;;;;;;;7379541;19;20149;-71
2023/08/03 11:28:00;;;;;;;0.00;0.00;;;;;;;;;;7378523;19;20160;-70
2023/08/03 11:30:29;;;;;;;0.00;0.00;;;;;;;;;;7381413;19;20166;-70
2023/08/03 11:33:01;;;;;;;0.00;0.00;;;;;;;;;;7379975;19;20141;-71
2023/08/03 11:35:31;;;;;;;0.00;0.00;;;;;;;;;;7374852;19;20176;-70
2023/08/03 11:38:03;;;;;;;0.00;0.00;;;;;;;;;;7375741;19;20149;-71
2023/08/03 11:40:32;;;;;;;0.00;0.00;;;;;;;;;;7377467;19;20160;-71
2023/08/03 11:43:01;;;;;;;0.00;0.00;;;;;;;;;;7377736;19;20129;-71
2023/08/03 11:45:31;;;;;;;0.00;0.00;;;;;;;;;;7375234;19;20180;-73
2023/08/03 11:48:01;;;;;;;0.00;0.00;;;;;;;;;;7377571;19;20152;-71
2023/08/03 11:50:31;;;;;;;0.00;0.00;;;;;;;;;;7380789;19;20156;-71
2023/08/03 11:53:07;;;;;;;0.00;0.00;;;;;;;;;;7379431;19;20218;-71
2023/08/03 11:55:36;;;;;;;0.00;0.00;;;;;;;;;;7379468;19;20152;-70
2023/08/03 11:58:10;;;;;;;0.00;0.00;;;;;;;;;;7376036;19;20148;-70
2023/08/03 12:00:39;;;;;;;0.00;0.00;;;;;;;;;;7379595;19;20155;-70
2023/08/03 12:03:08;;;;;;;0.00;0.00;;;;;;;;;;7378823;19;20143;-73
2023/08/03 12:05:51;;;;;;;0.00;0.00;;;;;;;;;;7375956;19;20193;-72
2023/08/03 12:08:26;;;;;;;0.00;0.00;;;;;;;;;;7377834;19;20188;-71
2023/08/03 12:11:00;;;;;;;0.00;0.00;;;;;;;;;;7376575;19;20164;-71
2023/08/03 12:13:29;;;;;;;0.00;0.00;;;;;;;;;;7378813;19;20187;-71
2023/08/03 12:15:58;;;;;;;0.00;0.00;;;;;;;;;;7375063;19;20216;-72
2023/08/03 12:18:27;;;;;;;0.00;0.00;;;;;;;;;;7378265;19;20169;-70
2023/08/03 12:21:00;;;;;;;0.00;0.00;;;;;;;;;;7377647;19;20187;-72
2023/08/03 12:23:34;;;;;;;0.00;0.00;;;;;;;;;;7380616;19;20140;-71
2023/08/03 12:26:03;;;;;;;0.00;0.00;;;;;;;;;;7375191;19;20192;-74
2023/08/03 12:28:37;;;;;;;0.00;0.00;;;;;;;;;;7379776;19;20148;-71
2023/08/03 12:31:09;;;;;;;0.00;0.00;;;;;;;;;;7382961;19;20140;-72
2023/08/03 12:33:38;;;;;;;0.00;0.00;;;;;;;;;;7384743;19;20228;-73
2023/08/03 12:36:08;;;;;;;0.00;0.00;;;;;;;;;;7374481;19;20179;-71
2023/08/03 12:38:41;;;;;;;0.00;0.00;;;;;;;;;;7372843;19;20169;-73
2023/08/03 12:41:17;;;;;;;0.00;0.00;;;;;;;;;;7368257;19;20145;-72
2023/08/03 12:44:00;;;;;;;0.00;0.00;;;;;;;;;;7373297;19;20148;-72
2023/08/03 12:46:49;;;;;;;0.00;0.00;;;;;;;;;;7373472;19;20180;-73
2023/08/03 12:49:26;;;;;;;0.00;0.00;;;;;;;;;;7378977;19;20526;-73
2023/08/03 12:51:56;;;;;;;0.00;0.00;;;;;;;;;;7381804;19;20160;-74
2023/08/03 12:54:28;;;;;;;0.00;0.00;;;;;;;;;;7382246;19;20157;-73
2023/08/03 12:57:04;;;;;;;0.00;0.00;;;;;;;;;;7378526;19;20160;-70
2023/08/03 12:59:33;;;;;;;0.00;0.00;;;;;;;;;;7383579;19;20156;-69
2023/08/03 13:02:04;;;;;;;0.00;0.00;;;;;;;;;;7383583;19;20224;-72
2023/08/03 13:04:33;;;;;;;0.00;0.00;;;;;;;;;;7386594;19;20143;-75
2023/08/03 13:07:03;;;;;;;0.00;0.00;;;;;;;;;;7384527;19;20240;-71
2023/08/03 13:09:34;;;;;;;0.00;0.00;;;;;;;;;;7384519;19;20178;-72
2023/08/03 13:12:09;;;;;;;0.00;0.00;;;;;;;;;;7380165;19;20141;-72
2023/08/03 13:14:40;;;;;;;0.00;0.00;;;;;;;;;;7383049;19;20151;-71
2023/08/03 13:17:11;;;;;;;0.00;0.00;;;;;;;;;;7381817;19;20148;-72
2023/08/03 13:19:41;;;;;;;0.00;0.00;;;;;;;;;;7384837;19;20228;-72
2023/08/03 13:22:10;;;;;;;0.00;0.00;;;;;;;;;;7384053;19;20162;-71
2023/08/03 13:24:44;;;;;;;0.00;0.00;;;;;;;;;;7384030;19;20143;-73
2023/08/03 13:27:17;;;;;;;0.00;0.00;;;;;;;;;;7382343;19;20668;-74
2023/08/03 13:29:46;;;;;;;0.00;0.00;;;;;;;;;;7383970;19;20157;-72
2023/08/03 13:32:15;;;;;;;0.00;0.00;;;;;;;;;;7383103;19;20149;-73
2023/08/03 13:34:44;;;;;;;0.00;0.00;;;;;;;;;;7368951;19;20239;-71
2023/08/03 13:37:16;;;;;;;0.00;0.00;;;;;;;;;;7381628;19;20153;-71
2023/08/03 13:39:48;;;;;;;0.00;0.00;;;;;;;;;;7383043;19;20174;-75
2023/08/03 13:42:17;;;;;;;0.00;0.00;;;;;;;;;;7384099;19;20158;-73
2023/08/03 13:44:46;;;;;;;0.00;0.00;;;;;;;;;;7380326;19;20213;-75
2023/08/03 13:47:15;;;;;;;0.00;0.00;;;;;;;;;;7380767;19;20161;-73
2023/08/03 13:49:44;;;;;;;0.00;0.00;;;;;;;;;;7381000;19;20170;-74
2023/08/03 13:52:15;;;;;;;0.00;0.00;;;;;;;;;;7380103;19;20187;-73
2023/08/03 13:54:44;;;;;;;0.00;0.00;;;;;;;;;;7376749;19;20192;-75
2023/08/03 13:57:15;;;;;;;0.00;0.00;;;16.60;99.90;;;;;;7377577;19;20240;-71
2023/08/03 13:59:44;;;;;;;0.00;0.00;;;22.50;99.90;;;;;;7379614;19;20135;-72
2023/08/03 14:02:14;;;;;;;0.00;0.00;;;22.50;99.90;;;;;;7376693;19;20156;-72
2023/08/03 14:04:49;;;;;;;0.00;0.00;;;22.50;99.90;;;;;;7376895;19;20180;-72
2023/08/03 14:07:19;;;;;;;0.00;0.00;;;22.60;99.90;;;;;;7377708;19;20191;-72
2023/08/03 14:09:47;;;;;;;0.00;0.00;;;22.70;99.90;;;;;;7383343;19;20145;-72
2023/08/03 14:12:19;;;;;;;0.00;0.00;;;22.70;99.90;;;;;;7379720;19;20159;-73
2023/08/03 14:14:47;;;;;;;0.00;0.00;;;22.80;99.90;;;;;;7378478;19;20180;-72
2023/08/03 14:17:19;;;;;;;0.00;0.00;;;22.80;99.90;;;;;;7379617;19;20156;-72
2023/08/03 14:19:48;;;;;;;0.00;0.00;;;22.90;99.90;;;;;;7381320;19;20160;-71
2023/08/03 14:22:19;;;;;;;0.00;0.00;;;22.90;99.90;;;;;;7381329;19;20170;-72
2023/08/03 14:24:48;;;;;;;0.00;0.00;;;22.90;99.90;;;;;;7370333;19;20157;-73
2023/08/03 14:27:20;;;;;;;0.00;0.00;;;22.90;99.90;;;;;;7380198;19;20155;-73
2023/08/03 14:29:48;;;;;;;0.00;0.00;;;22.80;99.90;;;;;;7383087;19;20137;-73
2023/08/03 14:32:20;;;;;;;0.00;0.00;;;22.80;99.90;;;;;;7380958;19;20167;-72
2023/08/03 14:34:49;;;;;;;0.00;0.00;;;22.70;99.90;;;;;;7377251;19;20195;-73
2023/08/03 14:37:18;;;;;;;0.00;0.00;;;22.60;99.90;;;;;;7378805;19;20178;-72
2023/08/03 14:39:47;;;;;;;0.00;0.00;;;22.50;99.90;;;;;;7381050;19;20156;-75
2023/08/03 14:42:18;;;;;;;0.00;0.00;;;22.50;99.90;;;;;;7381372;19;20718;-72
2023/08/03 14:44:50;;;;;;;0.00;0.00;;;22.40;99.90;;;;;;7370996;19;20181;-72
2023/08/03 14:47:19;;;;;;;0.00;0.00;;;22.30;99.90;;;;;;7382307;19;20208;-72
2023/08/03 14:49:47;;;;;;;0.00;0.00;;;22.30;99.90;;;;;;7381206;19;20168;-70
2023/08/03 14:52:16;;;;;;;0.00;0.00;;;22.30;99.90;;;;;;7380573;19;20144;-71
2023/08/03 14:54:45;;;;;;;0.00;0.00;;;22.20;99.90;;;;;;7379878;19;20153;-73
2023/08/03 14:57:14;;;;;;;0.00;0.00;;;22.20;99.90;;;;;;7378594;19;20178;-72
2023/08/03 14:59:45;;;;;;;0.00;0.00;;;22.10;99.90;;;;;;7381457;19;20186;-71
2023/08/03 15:02:14;;;;;;;0.00;0.00;;;21.90;99.90;;;;;;7380863;19;20497;-71
2023/08/03 15:04:44;;;;;;;0.00;0.00;;;21.80;99.90;;;;;;7378363;19;20183;-71
2023/08/03 15:07:14;;;;;;;0.00;0.00;;;21.60;99.90;;;;;;7380140;19;20192;-70
2023/08/03 15:09:44;;;;;;;0.00;0.00;;;21.50;99.90;;;;;;7377584;19;20220;-70
2023/08/03 15:12:12;;;;;;;0.00;0.00;;;21.30;99.90;;;;;;7378972;19;20136;-73
2023/08/03 15:14:44;;;;;;;0.00;0.00;;;21.20;99.90;;;;;;7375429;19;20168;-70
2023/08/03 15:17:15;;;;;;;0.00;0.00;;;21.10;99.90;;;;;;7379555;19;20141;-72
2023/08/03 15:19:45;;;;;;;0.00;0.00;;;20.90;99.90;;;;;;7379675;19;20137;-70
2023/08/03 15:22:14;;;;;;;0.00;0.00;;;20.80;99.90;;;;;;7376930;19;20148;-71
2023/08/03 15:24:50;;;;;;;0.00;0.00;;;20.70;99.90;;;;;;7376676;19;20201;-71
2023/08/03 15:27:19;;;;;;;0.00;0.00;;;20.60;99.90;;;;;;7379465;19;20180;-71
2023/08/03 15:29:47;;;;;;;0.00;0.00;;;20.60;99.90;;;;;;7378371;19;20177;-72
2023/08/03 15:32:19;;;;;;;0.00;0.00;;;20.50;99.90;;;;;;7378727;19;20250;-74
2023/08/03 15:34:47;;;;;;;0.00;0.00;;;20.50;99.90;;;;;;7375502;19;20161;-72
2023/08/03 15:37:16;;;;;;;0.00;0.00;;;20.60;99.90;;;;;;7366968;19;20133;-72
2023/08/03 15:39:45;;;;;;;0.00;0.00;;;20.60;99.90;;;;;;7378238;19;20164;-72
2023/08/03 15:42:14;;;;;;;0.00;0.00;;;20.60;99.90;;;;;;7379273;19;20136;-72
2023/08/03 15:44:46;;;;;;;0.00;0.00;;;20.70;99.90;;;;;;7378032;19;20187;-71
2023/08/03 15:47:15;;;;;;;0.00;0.00;;;20.80;99.90;;;;;;7377917;19;20133;-71
2023/08/03 15:49:46;;;;;;;0.00;0.00;;;20.90;99.90;;;;;;7378363;19;20140;-71
2023/08/03 15:52:15;;;;;;;0.00;0.00;;;20.90;99.90;;;;;;7374088;19;20182;-71
2023/08/03 15:54:46;;;;;;;0.00;0.00;;;20.90;99.90;;;;;;7376789;19;20157;-71
2023/08/03 15:57:15;;;;;;;0.00;0.00;;;21.00;99.90;;;;;;7376741;19;20166;-72
2023/08/03 15:59:44;;;;;;;0.00;0.00;;;20.90;99.90;;;;;;7380448;19;20137;-72
2023/08/03 16:02:12;;;;;;;0.00;0.00;;;20.90;99.90;;;;;;7378914;19;20137;-72
2023/08/03 16:04:42;;;;;;;0.00;0.00;;;20.90;99.90;;;;;;7371737;19;20136;-71
2023/08/03 16:07:13;;;;;;;0.00;0.00;;;20.90;99.90;;;;;;7369552;19;20172;-73
2023/08/03 16:09:44;;;;;;;0.00;0.00;;;20.80;99.90;;;;;;7379352;19;20649;-74
2023/08/03 16:12:13;;;;;;;0.00;0.00;;;20.80;99.90;;;;;;7376219;19;20169;-73
2023/08/03 16:14:45;;;;;;;0.00;0.00;;;20.70;99.90;;;;;;7376927;19;20212;-73
2023/08/03 16:17:15;;;;;;;0.00;0.00;;;20.70;99.90;;;;;;7375803;19;20208;-73
2023/08/03 16:19:44;;;;;;;0.00;0.00;;;20.70;99.90;;;;;;7375633;19;20156;-72
2023/08/03 16:22:15;;;;;;;0.00;0.00;;;20.80;99.90;;;;;;7377326;19;20144;-72
2023/08/03 16:24:44;;;;;;;0.00;0.00;;;20.90;99.90;;;;;;7376373;19;20188;-75
2023/08/03 16:27:13;;;;;;;0.00;0.00;;;20.90;99.90;;;;;;7376434;19;20153;-74
2023/08/03 16:29:42;;;;;;;0.00;0.00;;;20.90;99.90;;;;;;7378554;19;20223;-75
2023/08/03 16:32:10;;;;;;;0.00;0.00;;;21.00;99.90;;;;;;7375492;19;20509;-75
2023/08/03 16:34:42;;;;;;;0.00;0.00;;;21.00;99.90;;;;;;7375657;19;20152;-76
2023/08/03 16:37:11;;;;;;;0.00;0.00;;;21.00;99.90;;;;;;7374828;19;20153;-74
2023/08/03 16:39:42;;;;;;;0.00;0.00;;;21.00;99.90;;;;;;7376038;19;20148;-74
2023/08/03 16:42:11;;;;;;;0.00;0.00;;;20.90;99.90;;;;;;7376180;19;20159;-73
2023/08/03 16:44:43;;;;;;;0.00;0.00;;;20.90;99.90;;;;;;7377077;19;20141;-72
2023/08/03 16:47:11;;;;;;;0.00;0.00;;;20.90;99.90;;;;;;7376486;19;20138;-73
2023/08/03 16:49:41;;;;;;;0.00;0.00;;;20.90;99.90;;;;;;7373898;19;20653;-73
2023/08/03 16:52:12;;;;;;;0.00;0.00;;;20.90;99.90;;;;;;7375974;19;20204;-76
2023/08/03 16:54:45;;;;;;;0.00;0.00;;;20.90;99.90;;;;;;7386167;19;20153;-72
2023/08/03 16:57:16;;;;;;;0.00;0.00;;;20.90;99.90;;;;;;7383882;19;20144;-70
2023/08/03 16:59:47;;;;;;;0.00;0.00;;;20.90;99.90;;;;;;7383241;19;20519;-73
2023/08/03 17:02:16;;;;;;;0.00;0.00;;;20.90;99.90;;;;;;7376156;19;20240;-74
2023/08/03 17:04:45;;;;;;;0.00;0.00;;;20.90;99.90;;;;;;7374545;19;20180;-74
2023/08/03 17:07:14;;;;;;;0.00;0.00;;;20.90;99.90;;;;;;7373882;19;20152;-74
2023/08/03 17:09:46;;;;;;;0.00;0.00;;;20.90;99.90;;;;;;7376138;19;20141;-74
2023/08/03 17:12:14;;;;;;;0.00;0.00;;;20.90;99.90;;;;;;7373837;19;20512;-76
2023/08/03 17:14:43;;;;;;;0.00;0.00;;;20.90;99.90;;;;;;7371709;19;20341;-73
2023/08/03 17:17:12;;;;;;;0.00;0.00;;;20.90;99.90;;;;;;7374263;19;20143;-74
2023/08/03 17:19:41;;;;;;;0.00;0.00;;;20.90;99.90;;;;;;7373213;19;20159;-74
2023/08/03 17:22:13;;;;;;;0.00;0.00;;;20.90;99.90;;;;;;7375271;19;20149;-74
2023/08/03 17:24:44;;;;;;;0.00;0.00;;;21.00;99.90;;;;;;7374104;19;20184;-74
2023/08/03 17:27:13;;;;;;;0.00;0.00;;;21.00;99.90;;;;;;7373629;19;20172;-75
2023/08/03 17:29:42;;;;;;;0.00;0.00;;;21.00;99.90;;;;;;7376087;19;20149;-75
2023/08/03 17:32:11;;;;;;;0.00;0.00;;;21.00;99.90;;;;;;7374992;19;20131;-76
2023/08/03 17:34:40;;;;;;;0.00;0.00;;;21.00;99.90;;;;;;7369431;19;20180;-75
2023/08/03 17:37:08;;;;;;;0.00;0.00;;;21.00;99.90;;;;;;7376058;19;20156;-75
2023/08/03 17:39:37;;;;;;;0.00;0.00;;;21.00;99.90;;;;;;7378520;19;20169;-75
2023/08/03 17:42:09;;;;;;;0.00;0.00;;;21.00;99.90;;;;;;7377888;19;20464;-75
2023/08/03 17:44:38;;;;;;;0.00;0.00;;;21.00;99.90;;;;;;7381866;19;20182;-75
2023/08/03 17:47:07;;;;;;;0.00;0.00;;;20.90;99.90;;;;;;7382050;19;21382;-75
2023/08/03 17:49:36;;;;;;;0.00;0.00;;;20.90;99.90;;;;;;7386046;19;20180;-75
2023/08/03 17:52:06;;;;;;;0.00;0.00;;;20.90;99.90;;;;;;7362955;19;20173;-75
2023/08/03 17:54:36;;;;;;;0.00;0.00;;;20.90;99.90;;;;;;7376154;19;20640;-75
2023/08/03 17:57:08;;;;;;;0.00;0.00;;;20.90;99.90;;;;;;7378744;19;20137;-75
2023/08/03 17:59:37;;;;;;;0.00;0.00;;;20.90;99.90;;;;;;7375460;19;20159;-75
2023/08/03 18:02:07;;;;;;;0.00;0.00;;;20.80;99.90;;;;;;7375528;19;20234;-75
2023/08/03 18:04:38;;;;;;;0.00;0.00;;;20.80;99.90;;;;;;7377706;19;20156;-75
2023/08/03 18:07:07;;;;;;;0.00;0.00;;;20.70;99.90;;;;;;7376959;19;20145;-75
2023/08/03 18:09:38;;;;;;;0.00;0.00;;;20.70;99.90;;;;;;7368715;19;20136;-76
2023/08/03 18:12:11;;;;;;;0.00;0.00;;;20.70;99.90;;;;;;7367178;19;20157;-77
2023/08/03 18:14:43;;;;;;;0.00;0.00;;;20.60;99.90;;;;;;7375116;19;20188;-75
2023/08/03 18:17:13;;;;;;;0.00;0.00;;;20.60;99.90;;;;;;7379653;19;20153;-75
2023/08/03 18:19:41;;;;;;;0.00;0.00;;;20.60;99.90;;;;;;7374420;19;20158;-75
2023/08/03 18:22:10;;;;;;;0.00;0.00;;;20.50;99.90;;;;;;7374538;19;20157;-76
2023/08/03 18:24:39;;;;;;;0.00;0.00;;;20.50;99.90;;;;;;7375720;19;20184;-75
2023/08/03 18:27:10;;;;;;;0.00;0.00;;;20.50;99.90;;;;;;7373727;19;20157;-75
2023/08/03 18:29:39;;;;;;;0.00;0.00;;;20.40;99.90;;;;;;7380496;19;20141;-75
2023/08/03 18:32:08;;;;;;;0.00;0.00;;;20.40;99.90;;;;;;7379345;19;20137;-75
2023/08/03 18:34:37;;;;;;;0.00;0.00;;;20.30;99.90;;;;;;7377483;19;20185;-75
2023/08/03 18:37:06;;;;;;;0.00;0.00;;;20.30;99.90;;;;;;7376939;19;20152;-75
2023/08/03 18:39:35;;;;;;;0.00;0.00;;;20.30;99.90;;;;;;7378844;19;20152;-73
2023/08/03 18:42:05;;;;;;;0.00;0.00;;;20.20;99.90;;;;;;7375026;19;20156;-75
2023/08/03 18:44:37;;;;;;;0.00;0.00;;;20.20;99.90;;;;;;7365224;19;20233;-71
2023/08/03 18:47:06;;;;;;;0.00;0.00;;;20.20;99.90;;;;;;7376365;19;20159;-72
2023/08/03 18:49:36;;;;;;;0.00;0.00;;;;;;;;;;7378249;19;20152;-71
2023/08/03 18:52:05;;;;;;;0.00;0.00;;;20.00;99.90;;;;;;7377574;19;20180;-72
2023/08/03 18:54:34;;;;;;;0.00;0.00;;;19.90;99.90;;;;;;7378830;19;20149;-77
2023/08/03 18:57:04;;;;;;;0.00;0.00;;;19.90;99.90;;;;;;7370129;19;20156;-75